createdAt,value
2023-01-28T00:00:15.398Z,5.93
2023-01-28T00:03:17.176Z,6.97
2023-01-28T00:06:19.095Z,4.73
2023-01-28T00:09:23.603Z,6.40
2023-01-28T00:12:25.554Z,6.90
2023-01-28T00:15:27.189Z,6.33
2023-01-28T00:18:54.332Z,5.83
2023-01-28T00:21:56.013Z,4.80
2023-01-28T00:25:03.404Z,4.93
2023-01-28T00:28:05.073Z,4.40
2023-01-28T00:31:14.330Z,5.87
2023-01-28T00:34:16.084Z,4.80
2023-01-28T00:37:17.710Z,5.47
2023-01-28T00:40:19.523Z,5.90
2023-01-28T00:43:21.916Z,5.63
2023-01-28T00:46:25.253Z,5.10
2023-01-28T00:49:26.927Z,3.63
2023-01-28T00:52:31.981Z,6.17
2023-01-28T00:55:33.615Z,7.17
2023-01-28T00:58:35.246Z,4.17
2023-01-28T01:01:36.911Z,4.47
2023-01-28T01:04:39.561Z,4.00
2023-01-28T01:07:44.119Z,4.60
2023-01-28T01:10:45.764Z,3.20
2023-01-28T01:14:06.920Z,3.43
2023-01-28T01:17:08.619Z,3.60
2023-01-28T01:20:33.391Z,5.87
2023-01-28T01:23:35.272Z,6.43
2023-01-28T01:26:36.960Z,7.93
2023-01-28T01:29:39.364Z,5.50
2023-01-28T01:32:41.290Z,7.37
2023-01-28T01:35:43.092Z,8.00
2023-01-28T01:38:44.817Z,6.30
2023-01-28T01:41:46.488Z,8.20
2023-01-28T01:45:26.403Z,5.87
2023-01-28T01:48:33.470Z,5.57
2023-01-28T01:51:37.262Z,4.00
2023-01-28T01:54:42.943Z,4.10
2023-01-28T01:57:47.487Z,3.97
2023-01-28T02:00:49.180Z,4.37
2023-01-28T02:03:57.736Z,3.30
2023-01-28T02:07:01.514Z,3.90
2023-01-28T02:10:05.344Z,5.97
2023-01-28T02:13:07.052Z,5.83
2023-01-28T02:16:10.287Z,3.60
2023-01-28T02:19:12.723Z,4.47
2023-01-28T02:22:38.955Z,4.10
2023-01-28T02:26:14.465Z,4.03
2023-01-28T02:29:30.953Z,3.97
2023-01-28T02:32:44.656Z,3.03
2023-01-28T02:35:56.275Z,6.57
2023-01-28T02:39:01.608Z,3.40
2023-01-28T02:42:13.545Z,3.60
2023-01-28T02:45:25.204Z,4.90
2023-01-28T02:48:26.836Z,4.07
2023-01-28T02:52:00.874Z,3.40
2023-01-28T02:55:27.228Z,2.30
2023-01-28T02:58:42.792Z,2.87
2023-01-28T03:01:48.837Z,5.70
2023-01-28T03:05:00.749Z,3.73
2023-01-28T03:08:26.181Z,2.50
2023-01-28T03:11:48.531Z,2.77
2023-01-28T03:15:14.162Z,2.10
2023-01-28T03:18:43.488Z,2.20
2023-01-28T03:22:04.432Z,2.37
2023-01-28T03:25:27.008Z,4.60
2023-01-28T03:28:50.541Z,5.03
2023-01-28T03:32:13.136Z,2.60
2023-01-28T03:35:36.296Z,4.77
2023-01-28T03:38:48.430Z,2.63
2023-01-28T03:42:06.013Z,2.10
2023-01-28T03:45:08.370Z,3.13
2023-01-28T03:48:10.048Z,3.73
2023-01-28T03:51:12.324Z,3.20
2023-01-28T03:54:14.002Z,2.40
2023-01-28T03:57:17.312Z,4.50
2023-01-28T04:00:20.445Z,3.00
2023-01-28T04:03:22.437Z,5.10
2023-01-28T04:06:24.182Z,3.90
2023-01-28T04:09:26.048Z,2.97
2023-01-28T04:12:27.716Z,3.83
2023-01-28T04:15:31.011Z,4.23
2023-01-28T04:18:32.700Z,3.60
2023-01-28T04:21:34.663Z,3.30
2023-01-28T04:24:36.314Z,4.57
2023-01-28T04:27:37.971Z,3.30
2023-01-28T04:30:39.687Z,3.43
2023-01-28T04:33:41.366Z,4.77
2023-01-28T04:36:43.000Z,3.87
2023-01-28T04:39:44.607Z,3.30
2023-01-28T04:42:56.474Z,4.33
2023-01-28T04:45:58.163Z,4.20
2023-01-28T04:49:00.854Z,3.30
2023-01-28T04:52:02.573Z,3.10
2023-01-28T04:55:04.685Z,3.33
2023-01-28T04:58:06.669Z,3.23
2023-01-28T05:01:08.396Z,3.43
2023-01-28T05:04:10.363Z,3.20
2023-01-28T05:07:12.106Z,3.60
2023-01-28T05:10:13.729Z,3.07
2023-01-28T05:13:15.536Z,4.63
2023-01-28T05:16:17.384Z,4.13
2023-01-28T05:19:19.229Z,3.40
2023-01-28T05:22:21.019Z,3.43
2023-01-28T05:25:22.713Z,3.67
2023-01-28T05:28:24.399Z,5.60
2023-01-28T05:31:26.091Z,3.40
2023-01-28T05:34:27.804Z,4.47
2023-01-28T05:37:29.495Z,4.07
2023-01-28T05:40:31.558Z,5.20
2023-01-28T05:43:33.227Z,3.23
2023-01-28T05:46:34.935Z,3.33
2023-01-28T05:49:36.599Z,4.30
2023-01-28T05:52:38.293Z,3.80
2023-01-28T05:55:40.020Z,3.90
2023-01-28T05:58:41.686Z,3.10
2023-01-28T06:01:43.407Z,4.23
2023-01-28T06:04:45.058Z,3.57
2023-01-28T06:07:47.972Z,3.90
2023-01-28T06:10:49.615Z,4.00
2023-01-28T06:13:51.284Z,4.17
2023-01-28T06:16:53.273Z,2.87
2023-01-28T06:19:54.948Z,3.20
2023-01-28T06:22:56.674Z,2.90
2023-01-28T06:25:58.404Z,3.97
2023-01-28T06:29:00.164Z,3.20
2023-01-28T06:32:01.874Z,3.13
2023-01-28T06:35:04.083Z,2.50
2023-01-28T06:38:05.786Z,3.03
2023-01-28T06:41:07.662Z,4.57
2023-01-28T06:44:09.396Z,3.00
2023-01-28T06:47:11.143Z,4.33
2023-01-28T06:50:13.435Z,3.03
2023-01-28T06:53:16.187Z,4.77
2023-01-28T06:56:18.214Z,3.47
2023-01-28T06:59:19.911Z,3.67
2023-01-28T07:02:21.635Z,4.63
2023-01-28T07:05:23.752Z,4.93
2023-01-28T07:08:25.726Z,2.50
2023-01-28T07:11:27.414Z,2.50
2023-01-28T07:14:29.646Z,2.17
2023-01-28T07:17:31.537Z,3.50
2023-01-28T07:20:33.977Z,7.77
2023-01-28T07:23:35.753Z,3.80
2023-01-28T07:26:37.493Z,1.53
2023-01-28T07:29:39.132Z,1.97
2023-01-28T07:32:40.802Z,1.60
2023-01-28T07:35:42.450Z,1.57
2023-01-28T07:38:44.648Z,1.60
2023-01-28T07:41:47.350Z,1.50
2023-01-28T07:44:49.750Z,2.33
2023-01-28T07:48:12.466Z,2.27
2023-01-28T07:51:14.498Z,1.57
2023-01-28T07:54:16.804Z,1.40
2023-01-28T07:57:35.909Z,1.37
2023-01-28T08:00:38.584Z,1.80
2023-01-28T08:03:40.313Z,2.10
2023-01-28T08:06:42.485Z,1.67
2023-01-28T08:09:44.151Z,2.50
2023-01-28T08:12:53.772Z,1.83
2023-01-28T08:15:56.769Z,1.33
2023-01-28T08:18:58.509Z,1.40
2023-01-28T08:22:00.161Z,1.13
2023-01-28T08:25:02.017Z,1.63
2023-01-28T08:28:05.665Z,3.23
2023-01-28T08:31:07.570Z,2.77
2023-01-28T08:34:09.314Z,1.63
2023-01-28T08:37:10.914Z,2.77
2023-01-28T08:40:12.869Z,1.60
2023-01-28T08:43:14.614Z,1.23
2023-01-28T08:46:16.907Z,1.73
2023-01-28T08:49:18.633Z,3.03
2023-01-28T08:52:20.429Z,1.47
2023-01-28T08:55:22.194Z,2.87
2023-01-28T08:58:24.386Z,2.57
2023-01-28T09:01:29.208Z,2.00
2023-01-28T09:04:31.032Z,1.50
2023-01-28T09:07:34.491Z,1.37
2023-01-28T09:10:37.548Z,3.03
2023-01-28T09:13:39.236Z,1.40
2023-01-28T09:16:40.924Z,1.40
2023-01-28T09:19:42.670Z,1.20
2023-01-28T09:22:44.407Z,1.27
2023-01-28T09:25:46.140Z,2.23
2023-01-28T09:28:48.437Z,3.50
2023-01-28T09:31:50.336Z,2.17
2023-01-28T09:34:51.954Z,1.50
2023-01-28T09:37:58.210Z,3.30
2023-01-28T09:41:01.183Z,1.73
2023-01-28T09:44:24.100Z,1.93
2023-01-28T09:48:03.344Z,1.40
2023-01-28T09:51:18.132Z,1.47
2023-01-28T09:54:41.387Z,1.47
2023-01-28T09:57:49.957Z,1.73
2023-01-28T10:01:22.499Z,1.70
2023-01-28T10:04:34.640Z,1.30
2023-01-28T10:08:28.573Z,1.63
2023-01-28T10:11:35.947Z,1.10
2023-01-28T10:15:22.048Z,1.40
2023-01-28T10:18:38.392Z,2.50
2023-01-28T10:21:47.124Z,1.97
2023-01-28T10:24:54.298Z,1.60
2023-01-28T10:27:56.111Z,2.53
2023-01-28T10:30:57.876Z,1.00
2023-01-28T10:34:00.496Z,2.43
2023-01-28T10:37:02.127Z,3.07
2023-01-28T10:40:05.025Z,3.30
2023-01-28T10:43:08.620Z,2.47
2023-01-28T10:46:21.419Z,1.40
2023-01-28T10:49:27.607Z,2.43
2023-01-28T10:53:27.174Z,2.50
2023-01-28T10:56:32.008Z,2.17
2023-01-28T10:59:42.019Z,2.33
2023-01-28T11:02:43.751Z,2.40
2023-01-28T11:05:55.782Z,3.90
2023-01-28T11:08:59.194Z,2.77
2023-01-28T11:12:23.279Z,3.00
2023-01-28T11:15:25.278Z,3.30
2023-01-28T11:18:30.163Z,3.10
2023-01-28T11:21:32.831Z,3.03
2023-01-28T11:24:38.058Z,3.00
2023-01-28T11:27:39.880Z,3.30
2023-01-28T11:30:42.175Z,3.00
2023-01-28T11:33:50.867Z,3.50
2023-01-28T11:37:05.769Z,3.53
2023-01-28T11:40:26.383Z,4.73
2023-01-28T11:43:30.927Z,3.40
2023-01-28T11:47:10.388Z,4.17
2023-01-28T11:50:44.407Z,4.10
2023-01-28T11:54:01.280Z,4.40
2023-01-28T11:57:26.151Z,3.80
2023-01-28T12:00:45.913Z,4.77
2023-01-28T12:04:25.225Z,6.30
2023-01-28T12:07:35.631Z,4.57
2023-01-28T12:10:48.293Z,6.87
2023-01-28T12:14:18.527Z,3.73
2023-01-28T12:17:38.448Z,4.17
2023-01-28T12:21:10.576Z,3.77
2023-01-28T12:24:15.399Z,3.60
2023-01-28T12:27:42.739Z,3.03
2023-01-28T12:31:14.085Z,3.30
2023-01-28T12:34:48.773Z,3.20
2023-01-28T12:38:12.792Z,4.20
2023-01-28T12:41:20.999Z,3.33
2023-01-28T12:44:54.588Z,3.23
2023-01-28T12:48:19.008Z,3.90
2023-01-28T12:51:44.888Z,3.17
2023-01-28T12:55:11.924Z,4.57
2023-01-28T12:58:20.435Z,3.30
2023-01-28T13:01:31.747Z,3.93
2023-01-28T13:04:44.688Z,4.80
2023-01-28T13:07:56.327Z,4.27
2023-01-28T13:11:00.430Z,2.93
2023-01-28T13:14:03.847Z,4.87
2023-01-28T13:17:23.187Z,6.23
2023-01-28T13:20:45.816Z,4.70
2023-01-28T13:23:49.479Z,4.47
2023-01-28T13:26:58.273Z,3.10
2023-01-28T13:30:23.142Z,3.07
2023-01-28T13:33:30.824Z,4.33
2023-01-28T13:36:47.004Z,3.00
2023-01-28T13:39:52.140Z,6.93
2023-01-28T13:43:20.424Z,8.13
2023-01-28T13:46:30.144Z,2.80
2023-01-28T13:49:42.085Z,2.97
2023-01-28T13:52:59.000Z,4.83
2023-01-28T13:56:06.550Z,2.50
2023-01-28T13:59:22.005Z,3.50
2023-01-28T14:03:13.773Z,3.07
2023-01-28T14:06:54.613Z,3.17
2023-01-28T14:10:19.579Z,5.43
2023-01-28T14:13:51.250Z,3.83
2023-01-28T14:17:20.677Z,3.57
2023-01-28T14:20:44.219Z,3.07
2023-01-28T14:23:52.952Z,2.93
2023-01-28T14:27:07.306Z,4.37
2023-01-28T14:30:09.154Z,2.63
2023-01-28T14:33:21.410Z,3.70
2023-01-28T14:36:23.725Z,4.97
2023-01-28T14:39:28.781Z,2.80
2023-01-28T14:42:43.433Z,4.33
2023-01-28T14:45:53.829Z,2.50
2023-01-28T14:49:08.426Z,2.80
2023-01-28T14:52:37.439Z,5.37
2023-01-28T14:56:02.120Z,2.80
2023-01-28T14:59:24.728Z,3.97
2023-01-28T15:02:30.329Z,3.80
2023-01-28T15:05:31.975Z,3.17
2023-01-28T15:08:33.768Z,3.60
2023-01-28T15:11:39.434Z,3.20
2023-01-28T15:14:41.786Z,3.07
2023-01-28T15:17:53.184Z,3.93
2023-01-28T15:20:56.423Z,6.13
2023-01-28T15:24:01.085Z,4.90
2023-01-28T15:27:03.571Z,3.90
2023-01-28T15:30:19.943Z,4.47
2023-01-28T15:33:23.108Z,4.37
2023-01-28T15:36:26.333Z,3.63
2023-01-28T15:39:29.749Z,3.97
2023-01-28T15:42:32.085Z,3.10
2023-01-28T15:45:34.712Z,3.00
2023-01-28T15:48:37.206Z,3.00
2023-01-28T15:51:38.925Z,4.07
2023-01-28T15:54:44.219Z,3.77
2023-01-28T15:57:45.839Z,3.70
2023-01-28T16:00:48.741Z,3.40
2023-01-28T16:04:03.861Z,4.80
2023-01-28T16:07:05.758Z,5.93
2023-01-28T16:10:19.231Z,4.03
2023-01-28T16:13:23.878Z,4.57
2023-01-28T16:16:32.194Z,3.90
2023-01-28T16:20:01.389Z,4.10
2023-01-28T16:23:04.316Z,5.33
2023-01-28T16:26:21.154Z,5.87
2023-01-28T16:29:22.813Z,4.53
2023-01-28T16:32:36.343Z,5.50
2023-01-28T16:36:01.238Z,5.10
2023-01-28T16:38:59.861Z,5.23
2023-01-28T16:42:01.576Z,6.17
2023-01-28T16:45:03.767Z,7.13
2023-01-28T16:48:05.689Z,5.97
2023-01-28T16:51:15.867Z,5.23
2023-01-28T16:54:17.831Z,4.13
2023-01-28T16:57:21.867Z,7.33
2023-01-28T17:00:26.096Z,11.57
2023-01-28T17:03:27.875Z,9.47
2023-01-28T17:06:29.546Z,10.27
2023-01-28T17:09:31.423Z,9.87
2023-01-28T17:12:33.248Z,6.77
2023-01-28T17:15:36.073Z,5.50
2023-01-28T17:18:40.758Z,6.13
2023-01-28T17:21:42.504Z,5.67
2023-01-28T17:24:44.278Z,5.00
2023-01-28T17:27:49.102Z,5.30
2023-01-28T17:30:50.811Z,5.93
2023-01-28T17:33:57.963Z,6.03
2023-01-28T17:36:59.688Z,7.13
2023-01-28T17:40:02.026Z,5.37
2023-01-28T17:43:03.813Z,5.57
2023-01-28T17:46:16.591Z,5.57
2023-01-28T17:49:18.266Z,4.23
2023-01-28T17:52:19.979Z,5.67
2023-01-28T17:55:22.714Z,5.40
2023-01-28T17:58:24.433Z,5.50
2023-01-28T18:01:27.852Z,8.03
2023-01-28T18:04:29.705Z,7.93
2023-01-28T18:07:31.474Z,8.40
2023-01-28T18:10:33.215Z,7.57
2023-01-28T18:13:42.696Z,10.47
2023-01-28T18:16:44.476Z,8.20
2023-01-28T18:19:46.319Z,11.80
2023-01-28T18:22:48.048Z,13.90
2023-01-28T18:25:49.805Z,10.53
2023-01-28T18:28:51.487Z,13.47
2023-01-28T18:31:55.241Z,9.93
2023-01-28T18:35:02.446Z,11.17
2023-01-28T18:38:04.122Z,9.70
2023-01-28T18:41:06.004Z,13.57
2023-01-28T18:44:12.753Z,9.67
2023-01-28T18:47:14.395Z,13.20
2023-01-28T18:50:16.267Z,16.53
2023-01-28T18:53:18.218Z,18.40
2023-01-28T18:56:19.912Z,15.73
2023-01-28T18:59:21.618Z,12.43
2023-01-28T19:02:26.440Z,12.70
2023-01-28T19:05:28.215Z,10.83
2023-01-28T19:08:29.879Z,9.10
2023-01-28T19:11:32.048Z,8.30
2023-01-28T19:14:33.831Z,9.67
2023-01-28T19:17:38.183Z,10.80
2023-01-28T19:20:41.473Z,8.63
2023-01-28T19:23:49.967Z,9.90
2023-01-28T19:26:52.119Z,10.20
2023-01-28T19:29:53.787Z,12.77
2023-01-28T19:32:55.513Z,14.47
2023-01-28T19:35:58.487Z,15.13
2023-01-28T19:39:02.782Z,17.67
2023-01-28T19:42:04.541Z,14.93
2023-01-28T19:45:06.680Z,11.73
2023-01-28T19:48:08.392Z,11.00
2023-01-28T19:51:12.042Z,10.83
2023-01-28T19:54:14.169Z,10.30
2023-01-28T19:57:15.864Z,10.13
2023-01-28T20:00:18.121Z,12.13
2023-01-28T20:03:19.771Z,13.20
2023-01-28T20:06:23.702Z,10.13
2023-01-28T20:09:25.348Z,11.80
2023-01-28T20:12:27.702Z,9.03
2023-01-28T20:15:29.412Z,9.80
2023-01-28T20:18:31.202Z,8.13
2023-01-28T20:21:34.155Z,13.07
2023-01-28T20:24:36.041Z,16.77
2023-01-28T20:27:37.832Z,12.00
2023-01-28T20:30:39.756Z,9.50
2023-01-28T20:33:41.524Z,8.93
2023-01-28T20:36:43.532Z,7.30
2023-01-28T20:39:45.732Z,8.57
2023-01-28T20:42:47.512Z,6.50
2023-01-28T20:45:50.229Z,7.27
2023-01-28T20:48:54.204Z,10.30
2023-01-28T20:51:56.039Z,9.77
2023-01-28T20:54:57.724Z,10.50
2023-01-28T20:57:59.407Z,8.73
2023-01-28T21:01:01.361Z,7.63
2023-01-28T21:04:05.116Z,7.37
2023-01-28T21:07:06.827Z,9.07
2023-01-28T21:10:09.313Z,9.80
2023-01-28T21:13:12.117Z,9.13
2023-01-28T21:16:13.763Z,16.43
2023-01-28T21:19:15.429Z,14.30
2023-01-28T21:22:17.228Z,11.77
2023-01-28T21:25:19.492Z,13.13
2023-01-28T21:28:21.184Z,11.27
2023-01-28T21:31:25.501Z,10.07
2023-01-28T21:34:27.250Z,9.40
2023-01-28T21:37:28.917Z,8.50
2023-01-28T21:40:31.801Z,12.17
2023-01-28T21:43:34.058Z,14.23
2023-01-28T21:46:35.803Z,12.50
2023-01-28T21:49:37.494Z,14.37
2023-01-28T21:52:41.755Z,13.10
2023-01-28T21:55:47.100Z,13.10
2023-01-28T21:59:08.401Z,14.40
2023-01-28T22:02:13.000Z,13.43
2023-01-28T22:05:14.747Z,15.23
2023-01-28T22:08:17.607Z,20.27
2023-01-28T22:11:19.897Z,17.97
2023-01-28T22:14:21.829Z,14.00
2023-01-28T22:17:23.634Z,13.77
2023-01-28T22:20:25.346Z,11.50
2023-01-28T22:23:27.566Z,17.03
2023-01-28T22:26:29.197Z,12.40
2023-01-28T22:29:31.688Z,13.43
2023-01-28T22:32:33.318Z,14.73
2023-01-28T22:35:35.264Z,15.67
2023-01-28T22:38:39.075Z,16.67
2023-01-28T22:41:42.021Z,15.47
2023-01-28T22:44:43.701Z,15.30
2023-01-28T22:48:02.704Z,15.90
2023-01-28T22:51:10.700Z,14.37
2023-01-28T22:54:14.637Z,15.33
2023-01-28T22:57:16.364Z,18.77
2023-01-28T23:00:19.417Z,18.17
2023-01-28T23:03:21.218Z,19.17
2023-01-28T23:06:24.624Z,16.07
2023-01-28T23:09:26.511Z,16.83
2023-01-28T23:12:28.598Z,17.80
2023-01-28T23:15:48.746Z,14.00
2023-01-28T23:19:09.220Z,12.20
2023-01-28T23:22:45.091Z,13.03
2023-01-28T23:25:49.094Z,15.03
2023-01-28T23:28:50.923Z,13.03
2023-01-28T23:32:13.456Z,13.67
2023-01-28T23:35:15.239Z,14.53
2023-01-28T23:38:35.125Z,13.43
2023-01-28T23:41:37.004Z,14.47
2023-01-28T23:44:38.724Z,15.30
2023-01-28T23:47:40.487Z,15.93
2023-01-28T23:50:42.242Z,16.00
2023-01-28T23:53:44.232Z,17.30
2023-01-28T23:56:45.946Z,16.57
2023-01-28T23:59:47.651Z,17.30
